Boley, Oklahoma
Current Conditions -  °F | °C
As of 2:35 AM on Tuesday 21 Oct 2014 (Local Time) from KCQB Reporting Station
Scattered Clouds Scattered Clouds  
Wind Chill: 63°   Ceiling: Unl
Heat Index: 63°   Visibility: 10mi
Dew Point: 63°   Wind: 6mph
Humidity: 100%   Direction: 140°SE
Pressure: 30.06"   Gusts: NA
Location:  35.49°N, 96.48°W
Report Text: KCQB 210735Z AUTO 14005KT 10SM SCT055 17/17 A3006 RMK AO2
Loading
Personal Weather Stations






























Interactive Weather Map New forecast layout! Learn more

10-Day Weather Forecast

Advertisements
Track Severe Weather on mobile